createdAt,value
2023-01-28T00:02:26.030Z,2.60
2023-01-28T00:04:58.051Z,2.60
2023-01-28T00:07:29.950Z,2.60
2023-01-28T00:10:01.939Z,2.60
2023-01-28T00:12:33.794Z,2.70
2023-01-28T00:15:06.115Z,2.70
2023-01-28T00:17:38.041Z,2.70
2023-01-28T00:20:10.664Z,2.70
2023-01-28T00:22:48.037Z,2.80
2023-01-28T00:25:21.098Z,2.80
2023-01-28T00:27:53.018Z,2.90
2023-01-28T00:30:24.930Z,2.90
2023-01-28T00:32:56.945Z,2.80
2023-01-28T00:35:30.091Z,2.90
2023-01-28T00:38:03.701Z,2.90
2023-01-28T00:40:35.710Z,3.10
2023-01-28T00:43:08.120Z,3.10
2023-01-28T00:45:40.041Z,3.10
2023-01-28T00:48:11.988Z,3.00
2023-01-28T00:50:45.629Z,2.90
2023-01-28T00:53:18.636Z,2.90
2023-01-28T00:55:50.503Z,3.00
2023-01-28T00:58:24.223Z,3.10
2023-01-28T01:00:56.066Z,3.10
2023-01-28T01:03:28.043Z,3.20
2023-01-28T01:05:59.912Z,3.20
2023-01-28T01:08:52.455Z,3.30
2023-01-28T01:11:48.466Z,3.30
2023-01-28T01:14:20.321Z,3.20
2023-01-28T01:16:52.195Z,3.10
2023-01-28T01:19:24.314Z,3.10
2023-01-28T01:21:57.186Z,3.10
2023-01-28T01:24:34.261Z,3.10
2023-01-28T01:27:06.184Z,3.00
2023-01-28T01:29:39.047Z,3.00
2023-01-28T01:32:12.281Z,3.00
2023-01-28T01:34:44.783Z,3.00
2023-01-28T01:37:16.806Z,2.90
2023-01-28T01:39:49.154Z,2.90
2023-01-28T01:42:21.580Z,2.80
2023-01-28T01:45:13.024Z,2.80
2023-01-28T01:48:18.750Z,2.90
2023-01-28T01:51:00.869Z,3.00
2023-01-28T01:53:32.952Z,3.10
2023-01-28T01:56:09.097Z,3.10
2023-01-28T01:58:44.089Z,3.20
2023-01-28T02:01:17.783Z,3.20
2023-01-28T02:03:59.675Z,3.10
2023-01-28T02:06:32.345Z,3.10
2023-01-28T02:09:22.409Z,3.10
2023-01-28T02:12:00.038Z,3.00
2023-01-28T02:14:35.732Z,3.00
2023-01-28T02:17:07.871Z,2.90
2023-01-28T02:20:21.889Z,2.90
2023-01-28T02:23:12.585Z,2.90
2023-01-28T02:26:04.764Z,2.90
2023-01-28T02:28:39.707Z,2.80
2023-01-28T02:31:22.024Z,2.80
2023-01-28T02:34:08.722Z,2.80
2023-01-28T02:37:02.861Z,2.80
2023-01-28T02:39:41.440Z,2.90
2023-01-28T02:42:19.734Z,2.90
2023-01-28T02:44:52.536Z,2.90
2023-01-28T02:47:42.876Z,2.90
2023-01-28T02:50:19.085Z,2.90
2023-01-28T02:53:44.319Z,2.90
2023-01-28T02:56:34.554Z,2.90
2023-01-28T02:59:35.365Z,2.80
2023-01-28T03:02:11.004Z,2.80
2023-01-28T03:04:58.709Z,2.80
2023-01-28T03:07:33.762Z,2.80
2023-01-28T03:10:09.347Z,2.90
2023-01-28T03:13:01.731Z,2.80
2023-01-28T03:15:57.075Z,2.90
2023-01-28T03:19:02.843Z,2.90
2023-01-28T03:22:01.383Z,3.00
2023-01-28T03:25:05.997Z,3.00
2023-01-28T03:28:11.718Z,3.10
2023-01-28T03:31:08.333Z,3.10
2023-01-28T03:34:06.217Z,2.90
2023-01-28T03:36:47.453Z,2.80
2023-01-28T03:39:37.955Z,2.80
2023-01-28T03:42:15.137Z,2.70
2023-01-28T03:45:08.142Z,2.70
2023-01-28T03:47:40.808Z,2.80
2023-01-28T03:50:15.535Z,2.90
2023-01-28T03:53:13.505Z,3.00
2023-01-28T03:55:58.897Z,3.00
2023-01-28T03:58:49.390Z,3.00
2023-01-28T04:01:21.903Z,3.10
2023-01-28T04:03:54.125Z,3.10
2023-01-28T04:06:32.447Z,3.10
2023-01-28T04:09:10.040Z,3.00
2023-01-28T04:11:53.195Z,2.90
2023-01-28T04:14:31.266Z,2.90
2023-01-28T04:17:12.330Z,2.80
2023-01-28T04:19:44.687Z,2.80
2023-01-28T04:22:16.512Z,2.90
2023-01-28T04:24:48.459Z,2.90
2023-01-28T04:27:22.966Z,2.80
2023-01-28T04:29:55.636Z,2.80
2023-01-28T04:32:52.359Z,2.80
2023-01-28T04:35:38.750Z,2.90
2023-01-28T04:38:14.751Z,2.90
2023-01-28T04:40:54.538Z,3.00
2023-01-28T04:44:29.412Z,2.90
2023-01-28T04:50:29.994Z,2.90
2023-01-28T04:53:14.680Z,2.80
2023-01-28T04:55:57.929Z,2.80
2023-01-28T04:58:31.113Z,2.90
2023-01-28T05:01:51.476Z,2.80
2023-01-28T05:04:24.615Z,2.80
2023-01-28T05:06:58.569Z,2.80
2023-01-28T05:09:35.539Z,2.80
2023-01-28T05:12:08.196Z,2.70
2023-01-28T05:14:42.281Z,2.70
2023-01-28T05:17:18.547Z,2.70
2023-01-28T05:19:51.107Z,2.70
2023-01-28T05:22:26.926Z,2.70
2023-01-28T05:25:16.355Z,2.70
2023-01-28T05:27:52.634Z,2.70
2023-01-28T05:30:24.612Z,2.80
2023-01-28T05:32:57.263Z,2.70
2023-01-28T05:35:29.893Z,2.70
2023-01-28T05:38:01.876Z,2.60
2023-01-28T05:40:33.809Z,2.50
2023-01-28T05:43:06.158Z,2.40
2023-01-28T05:45:43.065Z,2.40
2023-01-28T05:48:37.826Z,2.20
2023-01-28T05:51:36.187Z,2.10
2023-01-28T05:54:09.944Z,2.00
2023-01-28T05:56:41.887Z,1.90
2023-01-28T05:59:13.913Z,1.90
2023-01-28T06:01:48.299Z,1.90
2023-01-28T06:04:20.255Z,1.90
2023-01-28T06:06:52.099Z,1.90
2023-01-28T06:09:24.071Z,1.80
2023-01-28T06:11:56.609Z,1.70
2023-01-28T06:14:29.143Z,1.60
2023-01-28T06:17:20.317Z,1.60
2023-01-28T06:20:06.430Z,1.60
2023-01-28T06:22:38.513Z,1.60
2023-01-28T06:25:11.463Z,1.50
2023-01-28T06:27:43.424Z,1.50
2023-01-28T06:30:17.317Z,1.40
2023-01-28T06:32:57.493Z,1.40
2023-01-28T06:35:29.307Z,1.40
2023-01-28T06:38:01.121Z,1.40
2023-01-28T06:40:33.026Z,1.40
2023-01-28T06:43:05.642Z,1.50
2023-01-28T06:45:37.503Z,1.50
2023-01-28T06:48:09.711Z,1.50
2023-01-28T06:50:41.880Z,1.50
2023-01-28T06:53:14.184Z,1.50
2023-01-28T06:55:46.193Z,1.50
2023-01-28T06:58:18.085Z,1.50
2023-01-28T07:00:49.907Z,1.50
2023-01-28T07:03:21.907Z,1.40
2023-01-28T07:05:53.833Z,1.40
2023-01-28T07:08:26.635Z,1.40
2023-01-28T07:10:58.700Z,1.50
2023-01-28T07:13:30.697Z,1.80
2023-01-28T07:16:02.810Z,2.30
2023-01-28T07:18:34.891Z,2.70
2023-01-28T07:21:06.755Z,3.00
2023-01-28T07:23:39.985Z,3.20
2023-01-28T07:26:11.810Z,3.60
2023-01-28T07:28:43.739Z,3.90
2023-01-28T07:31:15.715Z,4.30
2023-01-28T07:33:47.736Z,4.60
2023-01-28T07:36:19.586Z,4.70
2023-01-28T07:38:51.536Z,4.80
2023-01-28T07:41:23.751Z,5.00
2023-01-28T07:43:55.919Z,5.00
2023-01-28T07:46:28.761Z,5.20
2023-01-28T07:49:00.612Z,5.50
2023-01-28T07:51:32.565Z,5.70
2023-01-28T07:54:04.622Z,5.90
2023-01-28T07:56:36.527Z,5.90
2023-01-28T07:59:08.368Z,6.00
2023-01-28T08:01:40.248Z,6.10
2023-01-28T08:04:12.217Z,6.10
2023-01-28T08:06:44.211Z,6.30
2023-01-28T08:09:16.123Z,6.50
2023-01-28T08:11:48.031Z,6.60
2023-01-28T08:14:19.986Z,6.70
2023-01-28T08:16:51.799Z,6.80
2023-01-28T08:19:23.763Z,7.00
2023-01-28T08:21:55.618Z,7.30
2023-01-28T08:24:46.412Z,7.60
2023-01-28T08:27:18.268Z,7.80
2023-01-28T08:29:50.394Z,8.00
2023-01-28T08:32:23.545Z,8.10
2023-01-28T08:34:55.433Z,8.00
2023-01-28T08:37:27.308Z,7.80
2023-01-28T08:39:59.171Z,7.70
2023-01-28T08:42:31.059Z,7.60
2023-01-28T08:45:02.977Z,7.40
2023-01-28T08:47:35.561Z,7.30
2023-01-28T08:50:08.090Z,7.30
2023-01-28T08:52:41.280Z,7.30
2023-01-28T08:55:14.004Z,6.90
2023-01-28T08:57:46.006Z,6.90
2023-01-28T09:00:18.245Z,6.80
2023-01-28T09:02:53.931Z,6.70
2023-01-28T09:05:25.845Z,6.60
2023-01-28T09:08:00.776Z,6.60
2023-01-28T09:10:34.546Z,6.70
2023-01-28T09:13:11.255Z,6.90
2023-01-28T09:15:45.759Z,6.90
2023-01-28T09:18:18.922Z,7.00
2023-01-28T09:20:51.039Z,7.50
2023-01-28T09:23:22.968Z,7.80
2023-01-28T09:26:01.231Z,8.10
2023-01-28T09:28:33.667Z,8.50
2023-01-28T09:31:10.439Z,8.10
2023-01-28T09:33:42.315Z,7.90
2023-01-28T09:36:14.165Z,8.00
2023-01-28T09:38:46.004Z,8.20
2023-01-28T09:41:29.449Z,8.00
2023-01-28T09:44:06.647Z,7.90
2023-01-28T09:46:45.719Z,7.90
2023-01-28T09:49:34.563Z,8.10
2023-01-28T09:52:12.403Z,8.00
2023-01-28T09:54:51.001Z,8.20
2023-01-28T09:57:24.124Z,8.30
2023-01-28T09:59:57.126Z,8.40
2023-01-28T10:02:37.712Z,8.70
2023-01-28T10:05:28.115Z,8.60
2023-01-28T10:08:23.029Z,8.60
2023-01-28T10:11:27.722Z,8.20
2023-01-28T10:14:16.084Z,8.20
2023-01-28T10:16:57.818Z,8.50
2023-01-28T10:19:35.926Z,8.60
2023-01-28T10:22:16.524Z,8.80
2023-01-28T10:25:06.220Z,9.10
2023-01-28T10:27:38.369Z,9.20
2023-01-28T10:30:33.727Z,9.00
2023-01-28T10:33:30.368Z,9.30
2023-01-28T10:36:02.443Z,9.70
2023-01-28T10:38:35.377Z,10.20
2023-01-28T10:41:11.449Z,10.40
2023-01-28T10:43:43.504Z,10.70
2023-01-28T10:46:32.137Z,10.60
2023-01-28T10:49:16.912Z,10.70
2023-01-28T10:51:48.785Z,11.10
2023-01-28T10:54:28.581Z,10.80
2023-01-28T10:57:07.701Z,11.30
2023-01-28T10:59:43.357Z,11.40
2023-01-28T11:02:32.696Z,10.90
2023-01-28T11:05:21.106Z,10.40
2023-01-28T11:08:16.702Z,9.70
2023-01-28T11:10:49.454Z,9.80
2023-01-28T11:13:29.562Z,9.70
2023-01-28T11:16:05.382Z,9.20
2023-01-28T11:18:46.283Z,8.80
2023-01-28T11:21:25.315Z,8.70
2023-01-28T11:24:14.457Z,8.80
2023-01-28T11:26:50.658Z,9.10
2023-01-28T11:29:32.302Z,9.20
2023-01-28T11:32:04.717Z,9.20
2023-01-28T11:34:36.696Z,8.90
2023-01-28T11:37:16.321Z,8.80
2023-01-28T11:39:48.307Z,8.70
2023-01-28T11:42:21.908Z,8.50
2023-01-28T11:44:54.359Z,8.50
2023-01-28T11:47:44.714Z,8.70
2023-01-28T11:50:47.244Z,9.00
2023-01-28T11:53:40.458Z,9.10
2023-01-28T11:56:46.466Z,9.30
2023-01-28T11:59:29.919Z,9.60
2023-01-28T12:02:19.728Z,9.70
2023-01-28T12:05:03.962Z,9.70
2023-01-28T12:07:42.396Z,9.60
2023-01-28T12:10:41.801Z,9.40
2023-01-28T12:13:28.299Z,9.10
2023-01-28T12:16:36.315Z,9.00
2023-01-28T12:19:50.689Z,9.00
2023-01-28T12:22:37.735Z,8.90
2023-01-28T12:25:31.302Z,8.70
2023-01-28T12:28:15.813Z,8.60
2023-01-28T12:31:11.519Z,8.50
2023-01-28T12:33:54.458Z,8.50
2023-01-28T12:36:51.357Z,8.60
2023-01-28T12:40:01.987Z,8.60
2023-01-28T12:42:50.311Z,8.60
2023-01-28T12:45:56.576Z,8.50
2023-01-28T12:48:38.886Z,8.50
2023-01-28T12:51:24.646Z,8.40
2023-01-28T12:54:10.405Z,8.50
2023-01-28T12:56:45.980Z,8.60
2023-01-28T12:59:43.501Z,8.60
2023-01-28T13:02:25.037Z,8.50
2023-01-28T13:05:08.929Z,8.40
2023-01-28T13:08:05.476Z,8.40
2023-01-28T13:10:46.643Z,8.40
2023-01-28T13:13:21.869Z,8.30
2023-01-28T13:15:53.814Z,8.40
2023-01-28T13:18:39.685Z,8.50
2023-01-28T13:21:27.921Z,8.50
2023-01-28T13:24:02.530Z,8.50
2023-01-28T13:26:45.244Z,8.50
2023-01-28T13:29:26.306Z,8.50
2023-01-28T13:32:02.027Z,8.40
2023-01-28T13:34:45.814Z,8.40
2023-01-28T13:37:40.551Z,8.40
2023-01-28T13:40:15.520Z,8.40
2023-01-28T13:42:59.669Z,8.50
2023-01-28T13:45:35.553Z,8.50
2023-01-28T13:48:39.705Z,8.60
2023-01-28T13:51:31.015Z,8.70
2023-01-28T13:54:19.106Z,8.60
2023-01-28T13:57:00.198Z,8.40
2023-01-28T13:59:47.612Z,8.40
2023-01-28T14:02:42.297Z,8.40
2023-01-28T14:05:20.267Z,8.30
2023-01-28T14:08:13.835Z,8.30
2023-01-28T14:11:09.907Z,8.50
2023-01-28T14:13:59.825Z,8.60
2023-01-28T14:16:52.797Z,8.70
2023-01-28T14:19:32.811Z,8.80
2023-01-28T14:22:09.306Z,8.80
2023-01-28T14:24:41.206Z,8.70
2023-01-28T14:27:28.233Z,8.60
2023-01-28T14:30:24.338Z,8.30
2023-01-28T14:32:58.897Z,8.20
2023-01-28T14:35:37.664Z,8.10
2023-01-28T14:38:16.576Z,8.10
2023-01-28T14:40:54.278Z,8.20
2023-01-28T14:43:27.686Z,8.20
2023-01-28T14:45:59.579Z,8.30
2023-01-28T14:48:52.612Z,8.30
2023-01-28T14:51:43.550Z,8.40
2023-01-28T14:54:21.293Z,8.40
2023-01-28T14:57:19.213Z,8.40
2023-01-28T14:59:58.309Z,8.40
2023-01-28T15:02:31.823Z,8.40
2023-01-28T15:05:15.343Z,8.40
2023-01-28T15:07:49.219Z,8.40
2023-01-28T15:10:26.980Z,8.30
2023-01-28T15:13:04.736Z,8.10
2023-01-28T15:15:42.543Z,8.00
2023-01-28T15:18:23.260Z,8.00
2023-01-28T15:20:56.610Z,8.00
2023-01-28T15:23:36.605Z,7.90
2023-01-28T15:26:18.156Z,7.80
2023-01-28T15:28:52.579Z,7.70
2023-01-28T15:31:28.897Z,7.60
2023-01-28T15:34:13.927Z,7.50
2023-01-28T15:36:47.888Z,7.40
2023-01-28T15:39:22.374Z,7.40
2023-01-28T15:42:01.968Z,7.30
2023-01-28T15:44:37.044Z,7.20
2023-01-28T15:47:32.591Z,7.10
2023-01-28T15:50:07.293Z,7.10
2023-01-28T15:52:42.164Z,7.10
2023-01-28T15:55:36.231Z,7.00
2023-01-28T15:58:26.585Z,6.90
2023-01-28T16:01:24.674Z,6.80
2023-01-28T16:04:03.884Z,6.70
2023-01-28T16:06:43.391Z,6.60
2023-01-28T16:09:24.215Z,6.50
2023-01-28T16:12:08.631Z,6.30
2023-01-28T16:14:46.476Z,6.30
2023-01-28T16:17:22.597Z,6.20
2023-01-28T16:20:04.343Z,6.10
2023-01-28T16:22:43.651Z,6.00
2023-01-28T16:25:24.188Z,5.90
2023-01-28T16:28:00.588Z,5.80
2023-01-28T16:30:32.699Z,5.80
2023-01-28T16:33:04.547Z,5.90
2023-01-28T16:36:01.296Z,5.90
2023-01-28T16:38:28.073Z,5.70
2023-01-28T16:40:59.850Z,5.60
2023-01-28T16:43:31.736Z,5.70
2023-01-28T16:46:09.296Z,5.50
2023-01-28T16:48:42.069Z,5.40
2023-01-28T16:51:18.478Z,5.10
2023-01-28T16:53:51.915Z,4.90
2023-01-28T16:56:46.219Z,4.80
2023-01-28T16:59:19.237Z,4.70
2023-01-28T17:01:51.453Z,4.60
2023-01-28T17:04:25.065Z,4.50
2023-01-28T17:06:58.391Z,4.50
2023-01-28T17:09:30.635Z,4.50
2023-01-28T17:12:03.091Z,4.40
2023-01-28T17:14:39.338Z,4.50
2023-01-28T17:17:11.278Z,4.40
2023-01-28T17:19:43.084Z,4.40
2023-01-28T17:22:15.040Z,4.40
2023-01-28T17:24:46.920Z,4.30
2023-01-28T17:27:21.343Z,4.30
2023-01-28T17:29:53.687Z,4.20
2023-01-28T17:32:28.659Z,4.20
2023-01-28T17:35:01.559Z,4.20
2023-01-28T17:37:33.418Z,4.10
2023-01-28T17:40:05.811Z,4.10
2023-01-28T17:42:37.986Z,4.10
2023-01-28T17:45:10.016Z,3.90
2023-01-28T17:47:41.858Z,3.80
2023-01-28T17:50:14.856Z,3.80
2023-01-28T17:52:46.779Z,3.80
2023-01-28T17:55:18.736Z,3.80
2023-01-28T17:57:50.779Z,3.70
2023-01-28T18:00:22.893Z,3.60
2023-01-28T18:02:56.384Z,3.60
2023-01-28T18:05:29.235Z,3.60
2023-01-28T18:08:01.105Z,3.50
2023-01-28T18:10:33.252Z,3.50
2023-01-28T18:13:05.609Z,3.50
2023-01-28T18:15:37.488Z,3.40
2023-01-28T18:18:09.992Z,3.40
2023-01-28T18:20:41.831Z,3.40
2023-01-28T18:23:14.715Z,3.30
2023-01-28T18:25:46.563Z,3.30
2023-01-28T18:28:18.895Z,3.20
2023-01-28T18:30:51.543Z,3.20
2023-01-28T18:33:23.960Z,3.10
2023-01-28T18:35:55.880Z,3.20
2023-01-28T18:38:27.730Z,3.20
2023-01-28T18:40:59.528Z,3.10
2023-01-28T18:43:32.906Z,3.20
2023-01-28T18:46:13.138Z,3.10
2023-01-28T18:48:45.122Z,3.10
2023-01-28T18:51:29.355Z,3.10
2023-01-28T18:54:04.622Z,3.00
2023-01-28T18:56:36.558Z,3.00
2023-01-28T18:59:11.898Z,3.00
2023-01-28T19:01:43.924Z,3.00
2023-01-28T19:04:16.058Z,3.00
2023-01-28T19:06:48.309Z,3.10
2023-01-28T19:09:20.270Z,3.10
2023-01-28T19:11:52.379Z,3.00
2023-01-28T19:14:24.218Z,3.00
2023-01-28T19:16:56.118Z,2.90
2023-01-28T19:19:27.990Z,2.80
2023-01-28T19:21:59.869Z,2.90
2023-01-28T19:24:31.942Z,2.80
2023-01-28T19:27:03.886Z,2.80
2023-01-28T19:29:35.877Z,2.80
2023-01-28T19:32:07.985Z,2.80
2023-01-28T19:34:40.175Z,2.80
2023-01-28T19:37:12.168Z,2.80
2023-01-28T19:39:44.397Z,2.80
2023-01-28T19:42:16.457Z,2.70
2023-01-28T19:44:48.300Z,2.60
2023-01-28T19:47:20.379Z,2.60
2023-01-28T19:49:52.199Z,2.60
2023-01-28T19:52:24.206Z,2.60
2023-01-28T19:54:56.523Z,2.60
2023-01-28T19:57:28.432Z,2.60
2023-01-28T20:00:00.337Z,2.60
2023-01-28T20:02:32.358Z,2.60
2023-01-28T20:05:04.906Z,2.60
2023-01-28T20:07:36.746Z,2.50
2023-01-28T20:10:11.902Z,2.50
2023-01-28T20:12:44.257Z,2.50
2023-01-28T20:15:16.610Z,2.60
2023-01-28T20:17:48.807Z,2.60
2023-01-28T20:20:21.027Z,2.50
2023-01-28T20:22:52.838Z,2.50
2023-01-28T20:25:24.716Z,2.50
2023-01-28T20:27:56.648Z,2.50
2023-01-28T20:30:28.530Z,2.50
2023-01-28T20:33:00.424Z,2.50
2023-01-28T20:35:32.238Z,2.60
2023-01-28T20:38:04.348Z,2.60
2023-01-28T20:40:37.380Z,2.60
2023-01-28T20:43:09.520Z,2.60
2023-01-28T20:45:41.468Z,2.50
2023-01-28T20:48:13.336Z,2.50
2023-01-28T20:50:45.293Z,2.50
2023-01-28T20:53:17.247Z,2.50
2023-01-28T20:56:08.509Z,2.50
2023-01-28T20:58:41.631Z,2.50
2023-01-28T21:01:18.554Z,2.40
2023-01-28T21:03:50.763Z,2.40
2023-01-28T21:06:23.793Z,2.60
2023-01-28T21:08:57.137Z,2.70
2023-01-28T21:11:29.499Z,2.60
2023-01-28T21:14:01.336Z,2.60
2023-01-28T21:16:33.175Z,2.50
2023-01-28T21:19:05.052Z,2.50
2023-01-28T21:21:37.847Z,2.30
2023-01-28T21:24:11.600Z,2.30
2023-01-28T21:26:43.562Z,2.20
2023-01-28T21:29:15.994Z,2.20
2023-01-28T21:31:47.987Z,2.10
2023-01-28T21:34:19.914Z,2.10
2023-01-28T21:36:51.869Z,2.00
2023-01-28T21:39:23.979Z,2.00
2023-01-28T21:41:55.847Z,1.90
2023-01-28T21:44:27.756Z,1.90
2023-01-28T21:46:59.665Z,1.80
2023-01-28T21:49:31.487Z,1.80
2023-01-28T21:52:03.352Z,1.80
2023-01-28T21:54:35.950Z,1.90
2023-01-28T21:57:07.914Z,1.90
2023-01-28T21:59:41.200Z,1.90
2023-01-28T22:02:14.754Z,2.00
2023-01-28T22:04:49.031Z,2.00
2023-01-28T22:07:21.305Z,2.00
2023-01-28T22:09:56.254Z,1.90
2023-01-28T22:12:28.373Z,1.90
2023-01-28T22:15:00.301Z,1.90
2023-01-28T22:17:32.843Z,1.90
2023-01-28T22:20:05.336Z,2.00
2023-01-28T22:22:37.199Z,2.00
2023-01-28T22:25:09.666Z,2.10
2023-01-28T22:27:41.592Z,2.00
2023-01-28T22:30:14.137Z,2.00
2023-01-28T22:32:46.388Z,1.90
2023-01-28T22:35:18.451Z,1.90
2023-01-28T22:37:50.424Z,1.90
2023-01-28T22:40:22.364Z,1.90
2023-01-28T22:42:54.382Z,1.80
2023-01-28T22:45:26.358Z,1.80
2023-01-28T22:47:58.397Z,1.80
2023-01-28T22:50:30.381Z,1.90
2023-01-28T22:53:03.333Z,1.90
2023-01-28T22:55:35.247Z,1.90
2023-01-28T22:58:09.206Z,1.90
2023-01-28T23:00:41.182Z,1.80
2023-01-28T23:03:13.065Z,1.80
2023-01-28T23:05:44.988Z,1.70
2023-01-28T23:08:16.871Z,1.70
2023-01-28T23:10:53.057Z,1.70
2023-01-28T23:13:26.759Z,1.70
2023-01-28T23:16:17.108Z,1.70
2023-01-28T23:19:07.577Z,1.70
2023-01-28T23:21:58.019Z,1.70
2023-01-28T23:24:30.748Z,1.70
2023-01-28T23:27:05.639Z,1.70
2023-01-28T23:29:37.558Z,1.70
2023-01-28T23:32:10.907Z,1.70
2023-01-28T23:34:46.776Z,1.70
2023-01-28T23:37:18.851Z,1.70
2023-01-28T23:39:50.724Z,1.70
2023-01-28T23:42:23.625Z,1.70
2023-01-28T23:44:55.463Z,1.60
2023-01-28T23:47:27.486Z,1.60
2023-01-28T23:49:59.747Z,1.60
2023-01-28T23:52:31.882Z,1.60
2023-01-28T23:55:04.275Z,1.50
2023-01-28T23:57:36.909Z,1.60
